sensor_id;sensor_type;location;lat;lon;timestamp;P1;durP1;ratioP1;P2;durP2;ratioP2
18140;SDS011;9196;49.194;12.526;2024-01-30T00:01:12;22.75;;;15.68;;
18140;SDS011;9196;49.194;12.526;2024-01-30T00:03:39;26.70;;;15.60;;
18140;SDS011;9196;49.194;12.526;2024-01-30T00:06:07;23.60;;;16.38;;
18140;SDS011;9196;49.194;12.526;2024-01-30T00:08:34;26.52;;;17.00;;
18140;SDS011;9196;49.194;12.526;2024-01-30T00:11:01;24.70;;;16.80;;
18140;SDS011;9196;49.194;12.526;2024-01-30T00:13:28;28.08;;;17.75;;
18140;SDS011;9196;49.194;12.526;2024-01-30T00:15:55;28.20;;;17.60;;
18140;SDS011;9196;49.194;12.526;2024-01-30T00:18:21;29.30;;;17.90;;
18140;SDS011;9196;49.194;12.526;2024-01-30T00:20:48;27.17;;;17.08;;
18140;SDS011;9196;49.194;12.526;2024-01-30T00:23:16;26.73;;;17.27;;
18140;SDS011;9196;49.194;12.526;2024-01-30T00:25:43;26.63;;;16.65;;
18140;SDS011;9196;49.194;12.526;2024-01-30T00:28:10;26.23;;;18.45;;
18140;SDS011;9196;49.194;12.526;2024-01-30T00:30:36;28.42;;;18.63;;
18140;SDS011;9196;49.194;12.526;2024-01-30T00:33:03;26.23;;;16.92;;
18140;SDS011;9196;49.194;12.526;2024-01-30T00:35:30;28.85;;;19.55;;
18140;SDS011;9196;49.194;12.526;2024-01-30T00:37:57;29.95;;;18.65;;
18140;SDS011;9196;49.194;12.526;2024-01-30T00:40:25;31.35;;;18.38;;
18140;SDS011;9196;49.194;12.526;2024-01-30T00:42:52;25.98;;;17.75;;
18140;SDS011;9196;49.194;12.526;2024-01-30T00:45:19;27.02;;;18.52;;
18140;SDS011;9196;49.194;12.526;2024-01-30T00:47:46;35.03;;;17.92;;
18140;SDS011;9196;49.194;12.526;2024-01-30T00:50:12;28.90;;;16.73;;
18140;SDS011;9196;49.194;12.526;2024-01-30T00:52:39;29.10;;;18.77;;
18140;SDS011;9196;49.194;12.526;2024-01-30T00:55:07;30.42;;;19.25;;
18140;SDS011;9196;49.194;12.526;2024-01-30T00:57:35;30.02;;;18.90;;
18140;SDS011;9196;49.194;12.526;2024-01-30T01:00:02;25.20;;;17.42;;
18140;SDS011;9196;49.194;12.526;2024-01-30T01:02:31;28.60;;;17.45;;
18140;SDS011;9196;49.194;12.526;2024-01-30T01:04:58;29.65;;;17.83;;
18140;SDS011;9196;49.194;12.526;2024-01-30T01:07:24;26.48;;;17.27;;
18140;SDS011;9196;49.194;12.526;2024-01-30T01:09:51;27.95;;;17.15;;
18140;SDS011;9196;49.194;12.526;2024-01-30T01:12:18;28.80;;;18.15;;
18140;SDS011;9196;49.194;12.526;2024-01-30T01:14:46;26.35;;;17.70;;
18140;SDS011;9196;49.194;12.526;2024-01-30T01:17:13;21.73;;;15.65;;
18140;SDS011;9196;49.194;12.526;2024-01-30T01:19:40;23.98;;;17.23;;
18140;SDS011;9196;49.194;12.526;2024-01-30T01:22:07;29.52;;;19.10;;
18140;SDS011;9196;49.194;12.526;2024-01-30T01:24:34;30.60;;;19.70;;
18140;SDS011;9196;49.194;12.526;2024-01-30T01:27:00;28.90;;;19.10;;
18140;SDS011;9196;49.194;12.526;2024-01-30T01:29:27;26.02;;;17.40;;
18140;SDS011;9196;49.194;12.526;2024-01-30T01:31:55;22.80;;;16.17;;
18140;SDS011;9196;49.194;12.526;2024-01-30T01:34:22;27.40;;;16.85;;
18140;SDS011;9196;49.194;12.526;2024-01-30T01:36:49;23.75;;;15.38;;
18140;SDS011;9196;49.194;12.526;2024-01-30T01:39:16;29.38;;;17.88;;
18140;SDS011;9196;49.194;12.526;2024-01-30T01:41:43;25.73;;;17.20;;
18140;SDS011;9196;49.194;12.526;2024-01-30T01:44:10;24.45;;;16.17;;
18140;SDS011;9196;49.194;12.526;2024-01-30T01:46:37;31.35;;;17.33;;
18140;SDS011;9196;49.194;12.526;2024-01-30T01:49:05;21.83;;;15.27;;
18140;SDS011;9196;49.194;12.526;2024-01-30T01:51:34;31.45;;;16.45;;
18140;SDS011;9196;49.194;12.526;2024-01-30T01:54:03;31.63;;;17.02;;
18140;SDS011;9196;49.194;12.526;2024-01-30T01:56:31;25.60;;;15.68;;
18140;SDS011;9196;49.194;12.526;2024-01-30T01:58:59;26.10;;;16.05;;
18140;SDS011;9196;49.194;12.526;2024-01-30T02:01:30;21.23;;;14.43;;
18140;SDS011;9196;49.194;12.526;2024-01-30T02:03:58;22.67;;;13.93;;
18140;SDS011;9196;49.194;12.526;2024-01-30T02:06:27;23.35;;;15.07;;
18140;SDS011;9196;49.194;12.526;2024-01-30T02:08:54;24.55;;;14.45;;
18140;SDS011;9196;49.194;12.526;2024-01-30T02:11:21;24.48;;;15.40;;
18140;SDS011;9196;49.194;12.526;2024-01-30T02:13:49;32.17;;;17.00;;
18140;SDS011;9196;49.194;12.526;2024-01-30T02:16:16;23.30;;;14.43;;
18140;SDS011;9196;49.194;12.526;2024-01-30T02:18:43;24.52;;;16.27;;
18140;SDS011;9196;49.194;12.526;2024-01-30T02:21:13;22.48;;;15.50;;
18140;SDS011;9196;49.194;12.526;2024-01-30T02:23:40;24.63;;;15.90;;
18140;SDS011;9196;49.194;12.526;2024-01-30T02:26:09;20.80;;;12.93;;
18140;SDS011;9196;49.194;12.526;2024-01-30T02:28:36;23.92;;;14.90;;
18140;SDS011;9196;49.194;12.526;2024-01-30T02:31:03;24.33;;;15.00;;
18140;SDS011;9196;49.194;12.526;2024-01-30T02:33:30;23.95;;;14.48;;
18140;SDS011;9196;49.194;12.526;2024-01-30T02:35:57;28.55;;;15.20;;
18140;SDS011;9196;49.194;12.526;2024-01-30T02:38:25;23.60;;;15.27;;
18140;SDS011;9196;49.194;12.526;2024-01-30T02:40:53;39.13;;;15.65;;
18140;SDS011;9196;49.194;12.526;2024-01-30T02:43:21;27.55;;;17.20;;
18140;SDS011;9196;49.194;12.526;2024-01-30T02:45:48;31.52;;;17.98;;
18140;SDS011;9196;49.194;12.526;2024-01-30T02:48:14;29.75;;;18.35;;
18140;SDS011;9196;49.194;12.526;2024-01-30T02:50:41;23.77;;;15.80;;
18140;SDS011;9196;49.194;12.526;2024-01-30T02:53:08;25.73;;;16.13;;
18140;SDS011;9196;49.194;12.526;2024-01-30T02:55:37;26.20;;;16.98;;
18140;SDS011;9196;49.194;12.526;2024-01-30T02:58:03;23.98;;;16.10;;
18140;SDS011;9196;49.194;12.526;2024-01-30T03:00:30;22.58;;;15.20;;
18140;SDS011;9196;49.194;12.526;2024-01-30T03:02:57;23.10;;;16.15;;
18140;SDS011;9196;49.194;12.526;2024-01-30T03:05:24;30.30;;;16.73;;
18140;SDS011;9196;49.194;12.526;2024-01-30T03:07:51;22.10;;;15.73;;
18140;SDS011;9196;49.194;12.526;2024-01-30T03:10:18;30.42;;;17.88;;
18140;SDS011;9196;49.194;12.526;2024-01-30T03:12:46;24.20;;;15.70;;
18140;SDS011;9196;49.194;12.526;2024-01-30T03:15:13;27.60;;;16.13;;
18140;SDS011;9196;49.194;12.526;2024-01-30T03:17:40;26.45;;;17.65;;
18140;SDS011;9196;49.194;12.526;2024-01-30T03:20:07;26.13;;;16.50;;
18140;SDS011;9196;49.194;12.526;2024-01-30T03:22:35;22.30;;;15.45;;
18140;SDS011;9196;49.194;12.526;2024-01-30T03:25:02;26.30;;;16.25;;
18140;SDS011;9196;49.194;12.526;2024-01-30T03:27:29;24.98;;;16.17;;
18140;SDS011;9196;49.194;12.526;2024-01-30T03:29:57;19.88;;;15.48;;
18140;SDS011;9196;49.194;12.526;2024-01-30T03:32:24;24.73;;;15.88;;
18140;SDS011;9196;49.194;12.526;2024-01-30T03:34:51;23.23;;;15.80;;
18140;SDS011;9196;49.194;12.526;2024-01-30T03:37:18;21.73;;;14.45;;
18140;SDS011;9196;49.194;12.526;2024-01-30T03:39:45;22.33;;;14.40;;
18140;SDS011;9196;49.194;12.526;2024-01-30T03:42:12;20.52;;;15.02;;
18140;SDS011;9196;49.194;12.526;2024-01-30T03:44:38;23.85;;;14.20;;
18140;SDS011;9196;49.194;12.526;2024-01-30T03:47:07;20.27;;;13.18;;
18140;SDS011;9196;49.194;12.526;2024-01-30T03:49:33;21.17;;;14.18;;
18140;SDS011;9196;49.194;12.526;2024-01-30T03:52:00;21.13;;;13.50;;
18140;SDS011;9196;49.194;12.526;2024-01-30T03:54:27;25.83;;;15.00;;
18140;SDS011;9196;49.194;12.526;2024-01-30T03:56:54;22.33;;;15.40;;
18140;SDS011;9196;49.194;12.526;2024-01-30T03:59:21;23.48;;;13.98;;
18140;SDS011;9196;49.194;12.526;2024-01-30T04:01:49;30.30;;;14.80;;
18140;SDS011;9196;49.194;12.526;2024-01-30T04:04:17;21.25;;;14.98;;
18140;SDS011;9196;49.194;12.526;2024-01-30T04:06:45;20.77;;;13.85;;
18140;SDS011;9196;49.194;12.526;2024-01-30T04:09:12;26.83;;;15.40;;
18140;SDS011;9196;49.194;12.526;2024-01-30T04:11:39;26.33;;;14.27;;
18140;SDS011;9196;49.194;12.526;2024-01-30T04:14:06;21.65;;;13.80;;
18140;SDS011;9196;49.194;12.526;2024-01-30T04:16:33;19.40;;;13.70;;
18140;SDS011;9196;49.194;12.526;2024-01-30T04:19:01;20.13;;;13.57;;
18140;SDS011;9196;49.194;12.526;2024-01-30T04:21:29;26.00;;;15.30;;
18140;SDS011;9196;49.194;12.526;2024-01-30T04:23:56;24.10;;;16.00;;
18140;SDS011;9196;49.194;12.526;2024-01-30T04:26:24;21.48;;;15.38;;
18140;SDS011;9196;49.194;12.526;2024-01-30T04:28:51;19.98;;;15.68;;
18140;SDS011;9196;49.194;12.526;2024-01-30T04:31:17;22.58;;;14.38;;
18140;SDS011;9196;49.194;12.526;2024-01-30T04:33:44;28.27;;;17.30;;
18140;SDS011;9196;49.194;12.526;2024-01-30T04:36:11;28.83;;;18.13;;
18140;SDS011;9196;49.194;12.526;2024-01-30T04:38:39;25.65;;;15.82;;
18140;SDS011;9196;49.194;12.526;2024-01-30T04:41:07;24.70;;;16.67;;
18140;SDS011;9196;49.194;12.526;2024-01-30T04:43:33;30.52;;;16.80;;
18140;SDS011;9196;49.194;12.526;2024-01-30T04:46:00;25.75;;;17.08;;
18140;SDS011;9196;49.194;12.526;2024-01-30T04:48:27;28.55;;;18.70;;
18140;SDS011;9196;49.194;12.526;2024-01-30T04:50:54;32.15;;;17.40;;
18140;SDS011;9196;49.194;12.526;2024-01-30T04:53:21;37.72;;;20.40;;
18140;SDS011;9196;49.194;12.526;2024-01-30T04:55:49;28.13;;;17.17;;
18140;SDS011;9196;49.194;12.526;2024-01-30T04:58:16;27.40;;;17.85;;
18140;SDS011;9196;49.194;12.526;2024-01-30T05:00:43;26.30;;;18.85;;
18140;SDS011;9196;49.194;12.526;2024-01-30T05:03:11;24.55;;;16.63;;
18140;SDS011;9196;49.194;12.526;2024-01-30T05:05:38;29.13;;;17.95;;
18140;SDS011;9196;49.194;12.526;2024-01-30T05:08:05;25.65;;;16.17;;
18140;SDS011;9196;49.194;12.526;2024-01-30T05:10:32;35.25;;;17.77;;
18140;SDS011;9196;49.194;12.526;2024-01-30T05:13:00;28.00;;;16.77;;
18140;SDS011;9196;49.194;12.526;2024-01-30T05:15:27;27.73;;;18.10;;
18140;SDS011;9196;49.194;12.526;2024-01-30T05:17:54;28.58;;;17.83;;
18140;SDS011;9196;49.194;12.526;2024-01-30T05:20:21;35.78;;;19.45;;
18140;SDS011;9196;49.194;12.526;2024-01-30T05:22:48;32.53;;;20.13;;
18140;SDS011;9196;49.194;12.526;2024-01-30T05:25:15;43.90;;;23.92;;
18140;SDS011;9196;49.194;12.526;2024-01-30T05:27:41;37.85;;;21.08;;
18140;SDS011;9196;49.194;12.526;2024-01-30T05:30:10;37.08;;;22.30;;
18140;SDS011;9196;49.194;12.526;2024-01-30T05:32:38;40.30;;;22.60;;
18140;SDS011;9196;49.194;12.526;2024-01-30T05:35:04;34.33;;;21.02;;
18140;SDS011;9196;49.194;12.526;2024-01-30T05:37:32;30.50;;;18.52;;
18140;SDS011;9196;49.194;12.526;2024-01-30T05:39:59;35.40;;;19.73;;
18140;SDS011;9196;49.194;12.526;2024-01-30T05:42:26;32.38;;;18.75;;
18140;SDS011;9196;49.194;12.526;2024-01-30T05:44:53;29.38;;;18.65;;
18140;SDS011;9196;49.194;12.526;2024-01-30T05:47:22;35.60;;;19.73;;
18140;SDS011;9196;49.194;12.526;2024-01-30T05:49:49;31.83;;;19.63;;
18140;SDS011;9196;49.194;12.526;2024-01-30T05:52:15;32.20;;;19.98;;
18140;SDS011;9196;49.194;12.526;2024-01-30T05:54:43;36.92;;;20.48;;
18140;SDS011;9196;49.194;12.526;2024-01-30T05:57:10;36.15;;;21.05;;
18140;SDS011;9196;49.194;12.526;2024-01-30T05:59:37;36.55;;;21.17;;
18140;SDS011;9196;49.194;12.526;2024-01-30T06:02:04;26.17;;;17.15;;
18140;SDS011;9196;49.194;12.526;2024-01-30T06:04:32;23.15;;;16.17;;
18140;SDS011;9196;49.194;12.526;2024-01-30T06:06:59;24.00;;;16.48;;
18140;SDS011;9196;49.194;12.526;2024-01-30T06:09:27;22.45;;;15.07;;
18140;SDS011;9196;49.194;12.526;2024-01-30T06:11:54;30.92;;;17.77;;
18140;SDS011;9196;49.194;12.526;2024-01-30T06:14:21;30.08;;;19.20;;
18140;SDS011;9196;49.194;12.526;2024-01-30T06:16:48;30.35;;;20.45;;
18140;SDS011;9196;49.194;12.526;2024-01-30T06:19:15;32.83;;;20.95;;
18140;SDS011;9196;49.194;12.526;2024-01-30T06:21:43;33.40;;;21.05;;
18140;SDS011;9196;49.194;12.526;2024-01-30T06:24:10;32.70;;;17.80;;
18140;SDS011;9196;49.194;12.526;2024-01-30T06:26:37;30.10;;;18.92;;
18140;SDS011;9196;49.194;12.526;2024-01-30T06:29:04;33.08;;;20.60;;
18140;SDS011;9196;49.194;12.526;2024-01-30T06:31:30;32.03;;;20.40;;
18140;SDS011;9196;49.194;12.526;2024-01-30T06:33:57;33.83;;;22.75;;
18140;SDS011;9196;49.194;12.526;2024-01-30T06:36:24;31.00;;;21.33;;
18140;SDS011;9196;49.194;12.526;2024-01-30T06:38:52;28.88;;;19.48;;
18140;SDS011;9196;49.194;12.526;2024-01-30T06:41:19;32.85;;;18.27;;
18140;SDS011;9196;49.194;12.526;2024-01-30T06:43:46;28.38;;;17.50;;
18140;SDS011;9196;49.194;12.526;2024-01-30T06:46:13;37.30;;;20.05;;
18140;SDS011;9196;49.194;12.526;2024-01-30T06:48:40;31.75;;;19.52;;
18140;SDS011;9196;49.194;12.526;2024-01-30T06:51:09;33.22;;;20.55;;
18140;SDS011;9196;49.194;12.526;2024-01-30T06:53:36;32.28;;;20.17;;
18140;SDS011;9196;49.194;12.526;2024-01-30T06:56:05;27.88;;;18.65;;
18140;SDS011;9196;49.194;12.526;2024-01-30T06:58:32;31.95;;;19.80;;
18140;SDS011;9196;49.194;12.526;2024-01-30T07:00:59;31.00;;;19.65;;
18140;SDS011;9196;49.194;12.526;2024-01-30T07:03:27;37.60;;;20.42;;
18140;SDS011;9196;49.194;12.526;2024-01-30T07:05:53;37.78;;;21.23;;
18140;SDS011;9196;49.194;12.526;2024-01-30T07:08:20;33.67;;;19.88;;
18140;SDS011;9196;49.194;12.526;2024-01-30T07:10:47;43.28;;;23.77;;
18140;SDS011;9196;49.194;12.526;2024-01-30T07:13:15;39.92;;;22.05;;
18140;SDS011;9196;49.194;12.526;2024-01-30T07:15:42;38.00;;;20.90;;
18140;SDS011;9196;49.194;12.526;2024-01-30T07:18:09;31.38;;;18.85;;
18140;SDS011;9196;49.194;12.526;2024-01-30T07:20:35;30.48;;;18.80;;
18140;SDS011;9196;49.194;12.526;2024-01-30T07:23:03;37.30;;;19.48;;
18140;SDS011;9196;49.194;12.526;2024-01-30T07:25:30;39.35;;;23.73;;
18140;SDS011;9196;49.194;12.526;2024-01-30T07:27:56;33.50;;;20.60;;
18140;SDS011;9196;49.194;12.526;2024-01-30T07:30:25;36.83;;;22.25;;
18140;SDS011;9196;49.194;12.526;2024-01-30T07:32:51;35.47;;;23.65;;
18140;SDS011;9196;49.194;12.526;2024-01-30T07:35:18;51.88;;;29.50;;
18140;SDS011;9196;49.194;12.526;2024-01-30T07:37:45;36.17;;;22.88;;
18140;SDS011;9196;49.194;12.526;2024-01-30T07:40:12;38.78;;;23.95;;
18140;SDS011;9196;49.194;12.526;2024-01-30T07:42:39;33.97;;;24.20;;
18140;SDS011;9196;49.194;12.526;2024-01-30T07:45:06;39.22;;;22.02;;
18140;SDS011;9196;49.194;12.526;2024-01-30T07:47:34;33.72;;;22.13;;
18140;SDS011;9196;49.194;12.526;2024-01-30T07:50:01;30.77;;;19.60;;
18140;SDS011;9196;49.194;12.526;2024-01-30T07:52:28;33.05;;;19.95;;
18140;SDS011;9196;49.194;12.526;2024-01-30T07:54:55;33.28;;;20.83;;
18140;SDS011;9196;49.194;12.526;2024-01-30T07:57:22;34.85;;;20.40;;
18140;SDS011;9196;49.194;12.526;2024-01-30T07:59:48;30.05;;;20.63;;
18140;SDS011;9196;49.194;12.526;2024-01-30T08:02:15;28.20;;;20.55;;
18140;SDS011;9196;49.194;12.526;2024-01-30T08:04:43;29.83;;;20.40;;
18140;SDS011;9196;49.194;12.526;2024-01-30T08:07:13;29.08;;;19.17;;
18140;SDS011;9196;49.194;12.526;2024-01-30T08:09:40;31.20;;;19.50;;
18140;SDS011;9196;49.194;12.526;2024-01-30T08:12:07;31.40;;;19.55;;
18140;SDS011;9196;49.194;12.526;2024-01-30T08:14:33;29.35;;;18.55;;
18140;SDS011;9196;49.194;12.526;2024-01-30T08:17:00;31.83;;;19.77;;
18140;SDS011;9196;49.194;12.526;2024-01-30T08:19:27;27.50;;;19.23;;
18140;SDS011;9196;49.194;12.526;2024-01-30T08:21:55;31.90;;;19.48;;
18140;SDS011;9196;49.194;12.526;2024-01-30T08:24:22;28.23;;;19.25;;
18140;SDS011;9196;49.194;12.526;2024-01-30T08:26:49;31.00;;;18.95;;
18140;SDS011;9196;49.194;12.526;2024-01-30T08:29:16;37.95;;;22.60;;
18140;SDS011;9196;49.194;12.526;2024-01-30T08:31:43;28.88;;;17.90;;
18140;SDS011;9196;49.194;12.526;2024-01-30T08:34:11;30.02;;;17.50;;
18140;SDS011;9196;49.194;12.526;2024-01-30T08:36:38;26.92;;;17.27;;
18140;SDS011;9196;49.194;12.526;2024-01-30T08:39:06;26.02;;;16.98;;
18140;SDS011;9196;49.194;12.526;2024-01-30T08:41:33;26.77;;;17.17;;
18140;SDS011;9196;49.194;12.526;2024-01-30T08:43:59;29.65;;;17.60;;
18140;SDS011;9196;49.194;12.526;2024-01-30T08:46:26;29.83;;;17.60;;
18140;SDS011;9196;49.194;12.526;2024-01-30T08:48:53;28.13;;;18.05;;
18140;SDS011;9196;49.194;12.526;2024-01-30T08:51:20;26.15;;;17.02;;
18140;SDS011;9196;49.194;12.526;2024-01-30T08:53:47;28.55;;;18.30;;
18140;SDS011;9196;49.194;12.526;2024-01-30T08:56:15;25.67;;;16.92;;
18140;SDS011;9196;49.194;12.526;2024-01-30T08:58:42;30.88;;;17.90;;
18140;SDS011;9196;49.194;12.526;2024-01-30T09:01:08;26.38;;;17.30;;
18140;SDS011;9196;49.194;12.526;2024-01-30T09:03:36;30.15;;;18.35;;
18140;SDS011;9196;49.194;12.526;2024-01-30T09:06:07;27.25;;;17.25;;
18140;SDS011;9196;49.194;12.526;2024-01-30T09:08:34;27.42;;;17.65;;
18140;SDS011;9196;49.194;12.526;2024-01-30T09:11:01;28.00;;;18.25;;
18140;SDS011;9196;49.194;12.526;2024-01-30T09:13:35;25.08;;;15.68;;
18140;SDS011;9196;49.194;12.526;2024-01-30T09:16:02;31.98;;;17.80;;
18140;SDS011;9196;49.194;12.526;2024-01-30T09:18:30;27.75;;;17.42;;
18140;SDS011;9196;49.194;12.526;2024-01-30T09:20:56;22.58;;;15.93;;
18140;SDS011;9196;49.194;12.526;2024-01-30T09:23:23;27.00;;;16.40;;
18140;SDS011;9196;49.194;12.526;2024-01-30T09:25:50;23.33;;;16.20;;
18140;SDS011;9196;49.194;12.526;2024-01-30T09:28:17;23.10;;;16.92;;
18140;SDS011;9196;49.194;12.526;2024-01-30T09:30:45;28.73;;;17.90;;
18140;SDS011;9196;49.194;12.526;2024-01-30T09:33:12;23.27;;;15.80;;
18140;SDS011;9196;49.194;12.526;2024-01-30T09:35:39;29.40;;;17.13;;
18140;SDS011;9196;49.194;12.526;2024-01-30T09:38:06;22.17;;;15.95;;
18140;SDS011;9196;49.194;12.526;2024-01-30T09:40:33;25.55;;;17.10;;
18140;SDS011;9196;49.194;12.526;2024-01-30T09:42:59;23.80;;;16.02;;
18140;SDS011;9196;49.194;12.526;2024-01-30T09:45:26;26.25;;;16.75;;
18140;SDS011;9196;49.194;12.526;2024-01-30T09:47:55;25.63;;;16.13;;
18140;SDS011;9196;49.194;12.526;2024-01-30T09:50:25;28.02;;;17.05;;
18140;SDS011;9196;49.194;12.526;2024-01-30T09:52:53;26.75;;;17.58;;
18140;SDS011;9196;49.194;12.526;2024-01-30T09:55:23;25.73;;;15.70;;
18140;SDS011;9196;49.194;12.526;2024-01-30T09:57:50;26.17;;;16.33;;
18140;SDS011;9196;49.194;12.526;2024-01-30T10:00:17;25.02;;;16.42;;
18140;SDS011;9196;49.194;12.526;2024-01-30T10:02:44;25.88;;;17.35;;
18140;SDS011;9196;49.194;12.526;2024-01-30T10:05:13;41.97;;;28.55;;
18140;SDS011;9196;49.194;12.526;2024-01-30T10:07:49;27.23;;;19.17;;
18140;SDS011;9196;49.194;12.526;2024-01-30T10:10:18;23.63;;;16.85;;
18140;SDS011;9196;49.194;12.526;2024-01-30T10:12:47;24.48;;;16.90;;
18140;SDS011;9196;49.194;12.526;2024-01-30T10:15:14;24.05;;;16.38;;
18140;SDS011;9196;49.194;12.526;2024-01-30T10:17:41;21.10;;;14.60;;
18140;SDS011;9196;49.194;12.526;2024-01-30T10:20:09;21.48;;;15.63;;
18140;SDS011;9196;49.194;12.526;2024-01-30T10:22:37;25.73;;;14.95;;
18140;SDS011;9196;49.194;12.526;2024-01-30T10:25:06;22.33;;;15.68;;
18140;SDS011;9196;49.194;12.526;2024-01-30T10:27:33;28.92;;;17.02;;
18140;SDS011;9196;49.194;12.526;2024-01-30T10:30:00;23.17;;;14.93;;
18140;SDS011;9196;49.194;12.526;2024-01-30T10:32:29;26.95;;;17.67;;
18140;SDS011;9196;49.194;12.526;2024-01-30T10:34:55;25.02;;;17.20;;
18140;SDS011;9196;49.194;12.526;2024-01-30T10:37:23;25.60;;;16.70;;
18140;SDS011;9196;49.194;12.526;2024-01-30T10:39:53;23.08;;;16.25;;
18140;SDS011;9196;49.194;12.526;2024-01-30T10:42:21;25.52;;;15.38;;
18140;SDS011;9196;49.194;12.526;2024-01-30T10:44:56;24.10;;;16.73;;
18140;SDS011;9196;49.194;12.526;2024-01-30T10:47:26;22.35;;;15.38;;
18140;SDS011;9196;49.194;12.526;2024-01-30T10:49:54;20.40;;;15.25;;
18140;SDS011;9196;49.194;12.526;2024-01-30T10:52:23;26.30;;;17.33;;
18140;SDS011;9196;49.194;12.526;2024-01-30T10:54:51;22.77;;;15.65;;
18140;SDS011;9196;49.194;12.526;2024-01-30T10:57:19;22.17;;;15.82;;
18140;SDS011;9196;49.194;12.526;2024-01-30T10:59:49;21.73;;;14.63;;
18140;SDS011;9196;49.194;12.526;2024-01-30T11:02:19;23.13;;;14.77;;
18140;SDS011;9196;49.194;12.526;2024-01-30T11:04:46;24.67;;;15.30;;
18140;SDS011;9196;49.194;12.526;2024-01-30T11:07:16;27.63;;;16.90;;
18140;SDS011;9196;49.194;12.526;2024-01-30T11:09:49;24.25;;;15.02;;
18140;SDS011;9196;49.194;12.526;2024-01-30T11:12:22;23.40;;;15.57;;
18140;SDS011;9196;49.194;12.526;2024-01-30T11:14:50;19.25;;;14.32;;
18140;SDS011;9196;49.194;12.526;2024-01-30T11:17:39;23.42;;;14.60;;
18140;SDS011;9196;49.194;12.526;2024-01-30T11:20:09;22.92;;;14.82;;
18140;SDS011;9196;49.194;12.526;2024-01-30T11:22:36;24.10;;;15.50;;
18140;SDS011;9196;49.194;12.526;2024-01-30T11:25:03;22.23;;;14.85;;
18140;SDS011;9196;49.194;12.526;2024-01-30T11:27:32;19.35;;;13.88;;
18140;SDS011;9196;49.194;12.526;2024-01-30T11:30:00;20.05;;;14.75;;
18140;SDS011;9196;49.194;12.526;2024-01-30T11:32:28;18.15;;;13.60;;
18140;SDS011;9196;49.194;12.526;2024-01-30T11:34:55;20.23;;;13.35;;
18140;SDS011;9196;49.194;12.526;2024-01-30T11:37:21;23.30;;;14.93;;
18140;SDS011;9196;49.194;12.526;2024-01-30T11:39:52;19.17;;;13.85;;
18140;SDS011;9196;49.194;12.526;2024-01-30T11:42:21;20.90;;;13.20;;
18140;SDS011;9196;49.194;12.526;2024-01-30T11:44:51;16.77;;;12.02;;
18140;SDS011;9196;49.194;12.526;2024-01-30T11:47:18;17.63;;;12.60;;
18140;SDS011;9196;49.194;12.526;2024-01-30T11:49:45;18.90;;;12.75;;
18140;SDS011;9196;49.194;12.526;2024-01-30T11:52:11;17.95;;;12.07;;
18140;SDS011;9196;49.194;12.526;2024-01-30T11:54:39;18.63;;;12.45;;
18140;SDS011;9196;49.194;12.526;2024-01-30T11:57:06;16.92;;;11.95;;
18140;SDS011;9196;49.194;12.526;2024-01-30T11:59:33;19.65;;;12.50;;
18140;SDS011;9196;49.194;12.526;2024-01-30T12:02:01;22.42;;;12.85;;
18140;SDS011;9196;49.194;12.526;2024-01-30T12:04:29;15.52;;;10.68;;
18140;SDS011;9196;49.194;12.526;2024-01-30T12:06:56;15.32;;;11.50;;
18140;SDS011;9196;49.194;12.526;2024-01-30T12:09:22;21.98;;;11.80;;
18140;SDS011;9196;49.194;12.526;2024-01-30T12:11:49;17.45;;;10.57;;
18140;SDS011;9196;49.194;12.526;2024-01-30T12:14:16;19.50;;;11.70;;
18140;SDS011;9196;49.194;12.526;2024-01-30T12:16:47;45.97;;;18.57;;
18140;SDS011;9196;49.194;12.526;2024-01-30T12:19:22;76.13;;;28.47;;
18140;SDS011;9196;49.194;12.526;2024-01-30T12:21:53;80.65;;;30.20;;
18140;SDS011;9196;49.194;12.526;2024-01-30T12:24:21;28.00;;;15.82;;
18140;SDS011;9196;49.194;12.526;2024-01-30T12:26:48;32.23;;;15.10;;
18140;SDS011;9196;49.194;12.526;2024-01-30T12:29:15;23.27;;;11.60;;
18140;SDS011;9196;49.194;12.526;2024-01-30T12:31:41;16.33;;;10.60;;
18140;SDS011;9196;49.194;12.526;2024-01-30T12:34:08;24.00;;;12.20;;
18140;SDS011;9196;49.194;12.526;2024-01-30T12:36:37;32.43;;;15.47;;
18140;SDS011;9196;49.194;12.526;2024-01-30T12:39:03;46.03;;;19.33;;
18140;SDS011;9196;49.194;12.526;2024-01-30T12:41:30;19.90;;;12.37;;
18140;SDS011;9196;49.194;12.526;2024-01-30T12:43:57;30.90;;;13.70;;
18140;SDS011;9196;49.194;12.526;2024-01-30T12:46:25;21.90;;;11.70;;
18140;SDS011;9196;49.194;12.526;2024-01-30T12:48:53;27.20;;;13.20;;
18140;SDS011;9196;49.194;12.526;2024-01-30T12:51:20;14.67;;;10.10;;
18140;SDS011;9196;49.194;12.526;2024-01-30T12:53:48;13.53;;;10.27;;
18140;SDS011;9196;49.194;12.526;2024-01-30T12:56:15;11.70;;;10.27;;
18140;SDS011;9196;49.194;12.526;2024-01-30T12:58:42;16.37;;;9.70;;
18140;SDS011;9196;49.194;12.526;2024-01-30T13:01:09;21.63;;;11.47;;
18140;SDS011;9196;49.194;12.526;2024-01-30T13:03:36;18.70;;;9.90;;
18140;SDS011;9196;49.194;12.526;2024-01-30T13:06:03;12.60;;;9.87;;
18140;SDS011;9196;49.194;12.526;2024-01-30T13:08:30;16.60;;;10.87;;
18140;SDS011;9196;49.194;12.526;2024-01-30T13:10:58;20.30;;;11.63;;
18140;SDS011;9196;49.194;12.526;2024-01-30T13:13:25;21.30;;;11.70;;
18140;SDS011;9196;49.194;12.526;2024-01-30T13:15:52;14.73;;;10.30;;
18140;SDS011;9196;49.194;12.526;2024-01-30T13:18:18;15.57;;;12.80;;
18140;SDS011;9196;49.194;12.526;2024-01-30T13:20:45;15.73;;;11.60;;
18140;SDS011;9196;49.194;12.526;2024-01-30T13:23:12;18.13;;;10.73;;
18140;SDS011;9196;49.194;12.526;2024-01-30T13:25:39;14.27;;;9.67;;
18140;SDS011;9196;49.194;12.526;2024-01-30T13:28:07;17.50;;;9.83;;
18140;SDS011;9196;49.194;12.526;2024-01-30T13:30:34;14.20;;;10.07;;
18140;SDS011;9196;49.194;12.526;2024-01-30T13:33:01;14.03;;;9.97;;
18140;SDS011;9196;49.194;12.526;2024-01-30T13:35:28;17.70;;;10.20;;
18140;SDS011;9196;49.194;12.526;2024-01-30T13:37:55;23.00;;;10.13;;
18140;SDS011;9196;49.194;12.526;2024-01-30T13:40:21;16.10;;;11.33;;
18140;SDS011;9196;49.194;12.526;2024-01-30T13:42:48;15.30;;;11.00;;
18140;SDS011;9196;49.194;12.526;2024-01-30T13:45:16;14.43;;;9.60;;
18140;SDS011;9196;49.194;12.526;2024-01-30T13:47:43;16.70;;;11.50;;
18140;SDS011;9196;49.194;12.526;2024-01-30T13:50:10;17.30;;;10.60;;
18140;SDS011;9196;49.194;12.526;2024-01-30T13:52:40;21.17;;;12.00;;
18140;SDS011;9196;49.194;12.526;2024-01-30T13:55:07;15.67;;;10.30;;
18140;SDS011;9196;49.194;12.526;2024-01-30T13:57:34;16.97;;;10.33;;
18140;SDS011;9196;49.194;12.526;2024-01-30T14:00:01;14.13;;;10.50;;
18140;SDS011;9196;49.194;12.526;2024-01-30T14:02:31;17.23;;;9.73;;
18140;SDS011;9196;49.194;12.526;2024-01-30T14:04:58;13.80;;;9.40;;
18140;SDS011;9196;49.194;12.526;2024-01-30T14:07:25;14.40;;;9.80;;
18140;SDS011;9196;49.194;12.526;2024-01-30T14:09:52;18.87;;;10.90;;
18140;SDS011;9196;49.194;12.526;2024-01-30T14:12:19;14.63;;;10.50;;
18140;SDS011;9196;49.194;12.526;2024-01-30T14:14:45;23.40;;;11.90;;
18140;SDS011;9196;49.194;12.526;2024-01-30T14:17:12;15.53;;;11.10;;
18140;SDS011;9196;49.194;12.526;2024-01-30T14:19:40;17.30;;;10.90;;
18140;SDS011;9196;49.194;12.526;2024-01-30T14:22:07;19.97;;;13.27;;